Time;durP1;ratioP1;P1;durP2;ratioP2;P2;SDS_P1;SDS_P2;PMS_P1;PMS_P2;Temp;Humidity;BMP_temperature;BMP_pressure;BME280_temperature;BME280_humidity;BME280_pressure;Samples;Min_cycle;Max_cycle;Signal;HPM_P1;HPM_P2
2022/09/11 00:01:05;;;;;;;;;;;18.70;67.90;;;;;;5123864;27;19926;-68
2022/09/11 00:03:32;;;;;;;;;;;18.70;67.90;;;;;;5107027;27;19911;-68
2022/09/11 00:06:05;;;;;;;;;;;18.70;67.80;;;;;;5124665;27;19998;-69
2022/09/11 00:08:31;;;;;;;;;;;18.60;67.90;;;;;;5124025;27;19961;-69
2022/09/11 00:11:04;;;;;;;;;;;18.60;68.10;;;;;;5105969;27;19911;-68
2022/09/11 00:13:30;;;;;;;;;;;18.60;68.20;;;;;;5123774;27;19930;-68
2022/09/11 00:15:56;;;;;;;;;;;18.60;68.30;;;;;;5124545;27;20414;-68
2022/09/11 00:18:22;;;;;;;;;;;18.60;68.40;;;;;;5124470;27;19904;-68
2022/09/11 00:20:57;;;;;;;;;;;18.60;68.50;;;;;;5123316;27;19908;-68
2022/09/11 00:23:24;;;;;;;;;;;18.50;68.40;;;;;;5123328;27;19993;-68
2022/09/11 00:25:50;;;;;;;;;;;18.50;68.50;;;;;;5125189;27;19907;-68
2022/09/11 00:28:16;;;;;;;;;;;18.60;68.60;;;;;;5124199;27;20055;-68
2022/09/11 00:30:43;;;;;;;;;;;18.50;68.60;;;;;;5123291;27;19903;-68
2022/09/11 00:33:11;;;;;;;;;;;18.50;68.60;;;;;;5123206;27;19923;-68
2022/09/11 00:35:37;;;;;;;;;;;18.50;68.70;;;;;;5122679;27;19907;-68
2022/09/11 00:38:02;;;;;;;;;;;18.50;68.80;;;;;;5125374;27;19906;-68
2022/09/11 00:40:28;;;;;;;;;;;18.50;68.80;;;;;;5125573;27;19907;-67
2022/09/11 00:42:54;;;;;;;;;;;18.50;68.80;;;;;;5123885;27;19906;-67
2022/09/11 00:45:21;;;;;;;;;;;18.60;68.90;;;;;;5123559;27;20480;-68
2022/09/11 00:47:49;;;;;;;;;;;18.60;68.80;;;;;;5125067;27;19907;-67
2022/09/11 00:50:16;;;;;;;;;;;18.60;68.80;;;;;;5122044;27;20010;-67
2022/09/11 00:53:02;;;;;;;;;;;18.60;68.90;;;;;;5124759;27;19968;-67
2022/09/11 00:55:31;;;;;;;;;;;18.60;68.90;;;;;;5124897;27;19912;-67
2022/09/11 00:57:58;;;;;;;;;;;18.60;69.00;;;;;;5123950;27;19911;-67
2022/09/11 01:00:24;;;;;;;;;;;18.60;69.00;;;;;;5122606;27;20350;-67
2022/09/11 01:02:50;;;;;;;;;;;18.60;69.00;;;;;;5124574;27;19907;-67
2022/09/11 01:05:17;;;;;;;;;;;18.60;69.10;;;;;;5105341;27;19910;-67
2022/09/11 01:07:43;;;;;;;;;;;18.70;69.10;;;;;;5122516;27;19908;-67
2022/09/11 01:10:09;;;;;;;;;;;18.70;69.20;;;;;;5122671;27;20274;-67
2022/09/11 01:12:42;;;;;;;;;;;18.70;69.10;;;;;;5123812;27;19903;-67
2022/09/11 01:15:24;;;;;;;;;;;18.70;69.10;;;;;;5124472;27;19907;-67
2022/09/11 01:17:59;;;;;;;;;;;18.70;69.10;;;;;;5121682;27;19904;-67
2022/09/11 01:20:28;;;;;;;;;;;18.70;69.10;;;;;;5121990;27;20386;-68
2022/09/11 01:23:10;;;;;;;;;;;18.70;69.10;;;;;;5123430;27;19903;-68
2022/09/11 01:25:55;;;;;;;;;;;18.80;69.20;;;;;;5123321;27;19904;-67
2022/09/11 01:28:23;;;;;;;;;;;18.70;69.20;;;;;;5123769;27;19918;-67
2022/09/11 01:30:55;;;;;;;;;;;18.80;69.20;;;;;;5105849;27;19954;-67
2022/09/11 01:33:34;;;;;;;;;;;18.80;69.10;;;;;;5123534;27;19923;-67
2022/09/11 01:36:10;;;;;;;;;;;18.80;69.10;;;;;;5123597;27;20314;-67
2022/09/11 01:38:42;;;;;;;;;;;18.80;69.00;;;;;;5123015;27;19943;-67
2022/09/11 01:41:14;;;;;;;;;;;18.80;69.00;;;;;;5121841;27;19904;-67
2022/09/11 01:43:51;;;;;;;;;;;18.80;69.10;;;;;;5122398;27;19907;-67
2022/09/11 01:46:21;;;;;;;;;;;18.70;69.00;;;;;;5122944;27;19910;-67
2022/09/11 01:48:49;;;;;;;;;;;18.70;69.00;;;;;;5120882;27;19907;-67
2022/09/11 01:51:20;;;;;;;;;;;18.80;69.00;;;;;;5122799;27;19910;-67
2022/09/11 01:53:48;;;;;;;;;;;18.80;69.00;;;;;;5123757;27;20357;-67
2022/09/11 01:56:18;;;;;;;;;;;18.80;69.00;;;;;;5122329;27;19903;-67
2022/09/11 01:58:45;;;;;;;;;;;18.80;69.00;;;;;;5103208;27;20014;-67
2022/09/11 02:01:21;;;;;;;;;;;18.80;69.00;;;;;;5123278;27;19911;-67
2022/09/11 02:03:51;;;;;;;;;;;18.80;69.00;;;;;;5123651;27;19950;-67
2022/09/11 02:06:20;;;;;;;;;;;18.80;69.00;;;;;;5122645;27;19960;-67
2022/09/11 02:09:08;;;;;;;;;;;18.80;69.00;;;;;;5121388;27;20342;-67
2022/09/11 02:11:36;;;;;;;;;;;18.80;69.00;;;;;;5110223;27;19938;-67
2022/09/11 02:14:21;;;;;;;;;;;18.80;69.00;;;;;;5123351;27;20274;-67
2022/09/11 02:16:50;;;;;;;;;;;18.80;69.00;;;;;;5132884;27;19903;-67
2022/09/11 02:19:17;;;;;;;;;;;18.80;69.00;;;;;;5132230;27;19915;-67
2022/09/11 02:21:43;;;;;;;;;;;18.80;69.00;;;;;;5133071;27;19953;-67
2022/09/11 02:24:09;;;;;;;;;;;18.80;69.00;;;;;;5133096;27;20418;-67
2022/09/11 02:26:41;;;;;;;;;;;18.80;69.70;;;;;;5114571;28;19911;-68
2022/09/11 02:29:06;;;;;;;;;;;18.80;69.00;;;;;;5135500;27;19904;-67
2022/09/11 02:31:32;;;;;;;;;;;18.80;68.90;;;;;;5139946;27;20358;-67
2022/09/11 02:33:58;;;;;;;;;;;18.80;68.90;;;;;;5139645;27;19915;-68
2022/09/11 02:36:39;;;;;;;;;;;18.80;68.80;;;;;;5139899;27;19911;-67
2022/09/11 02:39:20;;;;;;;;;;;18.80;68.90;;;;;;5139783;27;19923;-68
2022/09/11 02:41:45;;;;;;;;;;;18.80;69.00;;;;;;5139754;27;20281;-68
2022/09/11 02:44:31;;;;;;;;;;;18.70;69.00;;;;;;5139801;27;19903;-67
2022/09/11 02:46:57;;;;;;;;;;;18.70;69.00;;;;;;5082931;27;20014;-67
2022/09/11 02:49:36;;;;;;;;;;;18.80;69.10;;;;;;5100775;28;19994;-67
2022/09/11 02:52:06;;;;;;;;;;;18.80;69.10;;;;;;5119134;27;19908;-68
2022/09/11 02:54:31;;;;;;;;;;;18.80;69.10;;;;;;5120037;28;20319;-67
2022/09/11 02:57:13;;;;;;;;;;;18.80;69.10;;;;;;5119991;28;19946;-67
2022/09/11 02:59:42;;;;;;;;;;;18.80;69.10;;;;;;5119985;28;20360;-67
2022/09/11 03:02:11;;;;;;;;;;;18.80;69.00;;;;;;5119918;28;19904;-67
2022/09/11 03:04:37;;;;;;;;;;;18.70;68.90;;;;;;5119897;28;19904;-67
2022/09/11 03:07:03;;;;;;;;;;;18.70;68.80;;;;;;5119792;28;19930;-67
2022/09/11 03:09:28;;;;;;;;;;;18.80;68.80;;;;;;5119865;28;19943;-67
2022/09/11 03:11:54;;;;;;;;;;;18.70;68.70;;;;;;5101502;28;19899;-66
2022/09/11 03:14:19;;;;;;;;;;;18.70;68.70;;;;;;5119826;28;19952;-67
2022/09/11 03:16:45;;;;;;;;;;;18.70;68.70;;;;;;5119817;28;20379;-68
2022/09/11 03:19:11;;;;;;;;;;;18.70;68.80;;;;;;5119621;27;19903;-68
2022/09/11 03:21:37;;;;;;;;;;;18.60;68.80;;;;;;5119790;28;19908;-67
2022/09/11 03:24:03;;;;;;;;;;;18.60;68.90;;;;;;5119717;28;19907;-67
2022/09/11 03:26:31;;;;;;;;;;;18.60;68.90;;;;;;5119628;28;19903;-67
2022/09/11 03:28:57;;;;;;;;;;;18.60;68.90;;;;;;5119717;28;20439;-67
2022/09/11 03:31:23;;;;;;;;;;;18.60;69.60;;;;;;5119698;28;19904;-67
2022/09/11 03:33:48;;;;;;;;;;;18.60;68.90;;;;;;5119483;28;20366;-67
2022/09/11 03:36:14;;;;;;;;;;;18.60;68.90;;;;;;5119630;28;19957;-66
2022/09/11 03:38:39;;;;;;;;;;;18.60;68.90;;;;;;5119622;28;19904;-68
2022/09/11 03:41:05;;;;;;;;;;;18.60;69.00;;;;;;5116939;28;20283;-66
2022/09/11 03:43:32;;;;;;;;;;;18.60;69.00;;;;;;5116338;28;19907;-67
2022/09/11 03:45:58;;;;;;;;;;;18.60;69.10;;;;;;5116211;28;19952;-66
2022/09/11 03:48:24;;;;;;;;;;;18.60;69.10;;;;;;5116192;28;19957;-67
2022/09/11 03:50:49;;;;;;;;;;;18.60;69.10;;;;;;5115920;28;19907;-67
2022/09/11 03:53:15;;;;;;;;;;;18.60;69.10;;;;;;5116159;28;19995;-67
2022/09/11 03:55:41;;;;;;;;;;;18.60;69.10;;;;;;5116191;28;19908;-67
2022/09/11 03:58:08;;;;;;;;;;;18.60;69.10;;;;;;5116080;28;19943;-67
2022/09/11 04:00:35;;;;;;;;;;;18.60;69.10;;;;;;5116021;28;19904;-67
2022/09/11 04:03:00;;;;;;;;;;;18.60;69.20;;;;;;5115917;28;20002;-66
2022/09/11 04:05:26;;;;;;;;;;;18.70;69.20;;;;;;5116019;28;20096;-67
2022/09/11 04:07:52;;;;;;;;;;;18.60;69.20;;;;;;5115889;28;20044;-67
2022/09/11 04:10:19;;;;;;;;;;;18.70;69.20;;;;;;5115935;28;20000;-68
2022/09/11 04:12:45;;;;;;;;;;;18.70;69.20;;;;;;5115953;28;19903;-68
2022/09/11 04:15:10;;;;;;;;;;;18.70;69.00;;;;;;5115889;28;20259;-67
2022/09/11 04:17:36;;;;;;;;;;;18.70;68.90;;;;;;5115762;28;19910;-67
2022/09/11 04:20:02;;;;;;;;;;;18.70;68.90;;;;;;5115551;27;19908;-68
2022/09/11 04:22:28;;;;;;;;;;;18.70;69.00;;;;;;5115736;28;19903;-67
2022/09/11 04:24:54;;;;;;;;;;;18.70;69.00;;;;;;5115614;28;20017;-68
2022/09/11 04:27:22;;;;;;;;;;;18.70;69.00;;;;;;5115476;28;19912;-67
2022/09/11 04:29:47;;;;;;;;;;;18.70;69.00;;;;;;5115591;28;20366;-68
2022/09/11 04:32:13;;;;;;;;;;;18.80;69.00;;;;;;5115333;28;19918;-68
2022/09/11 04:34:39;;;;;;;;;;;18.70;69.00;;;;;;5115556;28;19907;-67
2022/09/11 04:37:05;;;;;;;;;;;18.80;69.10;;;;;;5115410;28;19899;-68
2022/09/11 04:39:31;;;;;;;;;;;18.70;68.90;;;;;;5115406;28;19911;-68
2022/09/11 04:41:56;;;;;;;;;;;18.80;69.00;;;;;;5097080;28;19906;-68
2022/09/11 04:44:23;;;;;;;;;;;18.80;69.00;;;;;;5115211;28;19903;-67
2022/09/11 04:46:49;;;;;;;;;;;18.80;69.00;;;;;;5115153;28;19950;-67
2022/09/11 04:49:15;;;;;;;;;;;18.80;69.10;;;;;;5115085;27;20389;-67
2022/09/11 04:51:41;;;;;;;;;;;18.80;69.00;;;;;;5114636;27;19951;-67
2022/09/11 04:54:07;;;;;;;;;;;18.80;69.00;;;;;;5114303;28;19904;-68
2022/09/11 04:56:33;;;;;;;;;;;18.80;69.00;;;;;;5114991;28;20347;-67
2022/09/11 04:59:00;;;;;;;;;;;18.80;69.00;;;;;;5114979;28;19904;-67
2022/09/11 05:01:27;;;;;;;;;;;18.80;68.90;;;;;;5117774;27;19907;-67
2022/09/11 05:03:52;;;;;;;;;;;18.80;68.80;;;;;;5135422;27;19903;-67
2022/09/11 05:06:18;;;;;;;;;;;18.80;68.60;;;;;;5135374;27;19910;-67
2022/09/11 05:08:44;;;;;;;;;;;18.80;68.50;;;;;;5135269;27;19974;-67
2022/09/11 05:11:12;;;;;;;;;;;18.80;68.60;;;;;;5135300;27;19904;-67
2022/09/11 05:13:38;;;;;;;;;;;18.80;68.60;;;;;;5116860;27;20281;-67
2022/09/11 05:16:04;;;;;;;;;;;18.80;68.60;;;;;;5135198;27;19910;-67
2022/09/11 05:18:30;;;;;;;;;;;18.80;68.60;;;;;;5116727;27;19950;-67
2022/09/11 05:21:00;;;;;;;;;;;18.80;68.60;;;;;;5115175;27;19943;-67
2022/09/11 05:23:26;;;;;;;;;;;18.90;68.60;;;;;;5114479;28;19958;-68
2022/09/11 05:25:56;;;;;;;;;;;18.90;68.70;;;;;;5114429;28;20359;-68
2022/09/11 05:28:22;;;;;;;;;;;18.90;68.70;;;;;;5096026;28;19908;-68
2022/09/11 05:30:48;;;;;;;;;;;18.90;68.60;;;;;;5114328;28;19904;-67
2022/09/11 05:33:14;;;;;;;;;;;18.90;68.60;;;;;;5114090;28;19923;-67
2022/09/11 05:35:39;;;;;;;;;;;18.90;68.60;;;;;;5114282;28;19956;-67
2022/09/11 05:38:05;;;;;;;;;;;19.00;68.80;;;;;;5114230;28;19926;-67
2022/09/11 05:40:31;;;;;;;;;;;19.00;68.60;;;;;;5114170;28;19996;-67
2022/09/11 05:42:56;;;;;;;;;;;19.00;68.60;;;;;;5114061;28;19911;-67
2022/09/11 05:45:23;;;;;;;;;;;19.00;68.60;;;;;;5114098;28;19903;-67
2022/09/11 05:47:49;;;;;;;;;;;19.00;68.50;;;;;;5114502;28;19930;-68
2022/09/11 05:50:14;;;;;;;;;;;19.00;68.60;;;;;;5113922;28;20414;-68
2022/09/11 05:52:40;;;;;;;;;;;19.00;68.60;;;;;;5113880;28;19907;-68
2022/09/11 05:55:06;;;;;;;;;;;19.10;68.60;;;;;;5113854;28;19910;-68
2022/09/11 05:57:31;;;;;;;;;;;19.10;68.60;;;;;;5113863;28;19927;-67
2022/09/11 05:59:57;;;;;;;;;;;19.10;68.60;;;;;;5113868;28;20268;-66
2022/09/11 06:02:23;;;;;;;;;;;19.10;68.60;;;;;;5113791;28;19961;-67
2022/09/11 06:04:48;;;;;;;;;;;19.10;68.60;;;;;;5113351;28;20293;-67
2022/09/11 06:07:14;;;;;;;;;;;19.20;68.50;;;;;;5113680;28;19947;-67
2022/09/11 06:09:40;;;;;;;;;;;19.20;68.60;;;;;;5095477;28;19908;-68
2022/09/11 06:12:06;;;;;;;;;;;19.20;68.60;;;;;;5113596;28;19957;-67
2022/09/11 06:14:31;;;;;;;;;;;19.20;68.50;;;;;;5113584;28;19993;-67
2022/09/11 06:16:57;;;;;;;;;;;19.30;68.70;;;;;;5113602;28;20369;-68
2022/09/11 06:19:22;;;;;;;;;;;19.40;68.80;;;;;;5113395;28;19911;-67
2022/09/11 06:21:49;;;;;;;;;;;19.40;68.60;;;;;;5113462;28;19911;-68
2022/09/11 06:24:14;;;;;;;;;;;19.40;68.50;;;;;;5113504;28;20091;-68
2022/09/11 06:26:40;;;;;;;;;;;19.50;68.40;;;;;;5113398;28;20015;-68
2022/09/11 06:29:06;;;;;;;;;;;19.50;68.40;;;;;;5095264;28;19903;-67
2022/09/11 06:31:32;;;;;;;;;;;19.60;68.50;;;;;;5095348;28;19911;-68
2022/09/11 06:33:57;;;;;;;;;;;19.60;68.60;;;;;;5095262;28;19915;-68
2022/09/11 06:36:28;;;;;;;;;;;19.70;68.70;;;;;;5113537;28;19904;-67
2022/09/11 06:38:56;;;;;;;;;;;19.80;68.80;;;;;;5113584;28;19908;-67
2022/09/11 06:41:23;;;;;;;;;;;19.90;68.50;;;;;;5095180;28;19935;-67
2022/09/11 06:43:49;;;;;;;;;;;19.90;68.40;;;;;;5113588;28;19904;-67
2022/09/11 06:46:18;;;;;;;;;;;20.00;68.60;;;;;;5113474;28;19903;-68
2022/09/11 06:48:45;;;;;;;;;;;20.10;68.60;;;;;;5113271;28;19907;-68
2022/09/11 06:51:12;;;;;;;;;;;20.20;68.60;;;;;;5127500;28;19908;-68
2022/09/11 06:53:38;;;;;;;;;;;20.40;68.70;;;;;;5113192;28;19907;-68
2022/09/11 06:56:05;;;;;;;;;;;20.40;68.50;;;;;;5094863;28;19911;-67
2022/09/11 06:58:31;;;;;;;;;;;20.50;68.10;;;;;;5113262;28;19907;-68
2022/09/11 07:01:07;;;;;;;;;;;20.60;67.60;;;;;;5113038;28;19915;-68
2022/09/11 07:03:33;;;;;;;;;;;20.60;66.80;;;;;;5113125;28;19991;-67
2022/09/11 07:05:59;;;;;;;;;;;20.60;66.60;;;;;;5112943;28;20007;-68
2022/09/11 07:08:24;;;;;;;;;;;20.60;66.80;;;;;;5113025;28;19908;-68
2022/09/11 07:10:50;;;;;;;;;;;20.60;66.70;;;;;;5113679;28;19903;-67
2022/09/11 07:13:16;;;;;;;;;;;20.60;66.60;;;;;;5113124;28;20332;-67
2022/09/11 07:15:41;;;;;;;;;;;20.50;66.00;;;;;;5113606;28;19943;-67
2022/09/11 07:18:07;;;;;;;;;;;20.50;66.00;;;;;;5116872;28;19908;-67
2022/09/11 07:20:33;;;;;;;;;;;20.50;65.90;;;;;;5116585;27;19908;-67
2022/09/11 07:22:58;;;;;;;;;;;20.40;65.80;;;;;;5116586;28;19960;-67
2022/09/11 07:25:25;;;;;;;;;;;20.40;65.60;;;;;;5116549;28;20347;-67
2022/09/11 07:27:53;;;;;;;;;;;20.40;65.80;;;;;;5116430;28;19999;-68
2022/09/11 07:30:19;;;;;;;;;;;20.40;66.00;;;;;;5116555;28;19914;-67
2022/09/11 07:32:45;;;;;;;;;;;20.40;66.10;;;;;;5116238;28;20069;-67
2022/09/11 07:35:11;;;;;;;;;;;20.30;66.20;;;;;;5116514;28;19999;-67
2022/09/11 07:37:37;;;;;;;;;;;20.30;66.40;;;;;;5116418;28;19908;-67
2022/09/11 07:40:03;;;;;;;;;;;20.30;66.50;;;;;;5097989;28;19998;-67
2022/09/11 07:42:29;;;;;;;;;;;20.40;66.90;;;;;;5116371;28;19903;-67
2022/09/11 07:44:54;;;;;;;;;;;20.40;67.30;;;;;;5116277;28;20248;-67
2022/09/11 07:47:20;;;;;;;;;;;20.50;67.50;;;;;;5116186;28;19907;-68
2022/09/11 07:49:46;;;;;;;;;;;20.60;67.70;;;;;;5116053;28;19915;-67
2022/09/11 07:52:13;;;;;;;;;;;20.70;67.90;;;;;;5116004;28;20358;-68
2022/09/11 07:54:39;;;;;;;;;;;20.80;68.10;;;;;;5116094;28;19908;-67
2022/09/11 07:57:04;;;;;;;;;;;21.00;68.20;;;;;;5116075;28;19911;-67
2022/09/11 07:59:30;;;;;;;;;;;21.10;67.80;;;;;;5116054;28;19918;-68
2022/09/11 08:01:55;;;;;;;;;;;21.30;67.30;;;;;;5116197;28;19904;-68
2022/09/11 08:04:21;;;;;;;;;;;21.40;67.20;;;;;;5116137;28;19904;-67
2022/09/11 08:06:47;;;;;;;;;;;21.60;67.00;;;;;;5097777;28;19903;-68
2022/09/11 08:09:14;;;;;;;;;;;21.70;67.00;;;;;;5098905;27;20365;-67
2022/09/11 08:11:47;;;;;;;;;;;21.90;67.20;;;;;;5126512;27;19935;-68
2022/09/11 08:14:14;;;;;;;;;;;22.10;67.30;;;;;;5125932;27;20329;-67
2022/09/11 08:16:40;;;;;;;;;;;22.30;66.60;;;;;;5125525;27;19904;-69
2022/09/11 08:19:07;;;;;;;;;;;22.40;65.90;;;;;;5123493;27;19904;-68
2022/09/11 08:21:33;;;;;;;;;;;22.50;64.80;;;;;;5124843;27;19956;-67
2022/09/11 08:23:58;;;;;;;;;;;22.60;64.00;;;;;;5125157;27;19907;-68
2022/09/11 08:26:25;;;;;;;;;;;22.60;63.50;;;;;;5123103;27;19904;-68
2022/09/11 08:28:52;;;;;;;;;;;22.70;63.40;;;;;;5106068;27;19915;-68
2022/09/11 08:31:19;;;;;;;;;;;22.60;63.00;;;;;;5124013;27;19955;-67
2022/09/11 08:33:44;;;;;;;;;;;22.60;62.90;;;;;;5125095;27;20392;-68
2022/09/11 08:36:13;;;;;;;;;;;22.60;63.00;;;;;;5123564;27;19908;-68
2022/09/11 08:38:39;;;;;;;;;;;22.50;63.10;;;;;;5123439;27;20309;-67
2022/09/11 08:41:10;;;;;;;;;;;22.50;63.10;;;;;;5125485;27;19910;-68
2022/09/11 08:43:43;;;;;;;;;;;22.50;62.80;;;;;;5124009;27;19926;-68
2022/09/11 08:46:10;;;;;;;;;;;22.40;62.30;;;;;;5123250;27;19911;-68
2022/09/11 08:48:54;;;;;;;;;;;22.30;61.40;;;;;;5123794;27;20061;-67
2022/09/11 08:51:20;;;;;;;;;;;22.20;61.50;;;;;;5123946;27;20211;-68
2022/09/11 08:53:46;;;;;;;;;;;22.20;62.00;;;;;;5102098;28;19930;-68
2022/09/11 08:56:16;;;;;;;;;;;22.10;62.20;;;;;;5114596;28;19988;-68
2022/09/11 08:58:45;;;;;;;;;;;22.10;62.40;;;;;;5114354;28;19904;-67
2022/09/11 09:01:23;;;;;;;;;;;22.10;62.00;;;;;;5114982;28;19904;-67
2022/09/11 09:04:08;;;;;;;;;;;22.00;61.40;;;;;;5096676;28;19904;-68
2022/09/11 09:06:39;;;;;;;;;;;22.00;61.40;;;;;;5114836;28;19955;-68
2022/09/11 09:09:31;;;;;;;;;;;21.90;61.00;;;;;;5114862;28;19988;-67
2022/09/11 09:12:14;;;;;;;;;;;21.80;61.20;;;;;;5031942;28;20412;-68
2022/09/11 09:14:52;;;;;;;;;;;21.70;61.60;;;;;;5032064;28;20347;-68
2022/09/11 09:17:18;;;;;;;;;;;21.70;61.60;;;;;;5032075;28;20356;-68
2022/09/11 09:19:45;;;;;;;;;;;21.60;61.40;;;;;;5038179;28;19948;-68
2022/09/11 09:22:25;;;;;;;;;;;21.50;61.40;;;;;;5051835;28;19905;-67
2022/09/11 09:24:53;;;;;;;;;;;21.50;61.70;;;;;;5051813;28;20017;-68
2022/09/11 09:27:23;;;;;;;;;;;21.40;61.90;;;;;;5035086;28;19959;-67
2022/09/11 09:29:51;;;;;;;;;;;21.30;62.20;;;;;;5051723;28;19904;-67
2022/09/11 09:32:20;;;;;;;;;;;21.30;62.70;;;;;;5051456;28;20019;-68
2022/09/11 09:34:47;;;;;;;;;;;21.40;62.90;;;;;;5051627;28;20438;-68
2022/09/11 09:37:12;;;;;;;;;;;21.30;62.70;;;;;;5051535;28;20284;-67
2022/09/11 09:39:38;;;;;;;;;;;21.40;62.80;;;;;;5050969;28;19908;-67
2022/09/11 09:42:07;;;;;;;;;;;21.40;62.90;;;;;;5051415;28;19911;-67
2022/09/11 09:44:53;;;;;;;;;;;21.40;62.70;;;;;;5051441;28;19905;-67
2022/09/11 09:47:18;;;;;;;;;;;21.40;62.60;;;;;;5050961;28;20011;-67
2022/09/11 09:49:44;;;;;;;;;;;21.30;62.50;;;;;;5088948;28;20041;-67
2022/09/11 09:52:16;;;;;;;;;;;21.20;62.80;;;;;;5093655;28;19911;-67
2022/09/11 09:54:43;;;;;;;;;;;21.10;63.30;;;;;;5092319;28;19911;-68
2022/09/11 09:57:10;;;;;;;;;;;21.00;63.80;;;;;;5093612;28;19934;-67
2022/09/11 09:59:48;;;;;;;;;;;21.00;64.50;;;;;;5093562;28;19904;-67
2022/09/11 10:02:30;;;;;;;;;;;21.00;65.10;;;;;;5093586;28;19911;-67
2022/09/11 10:05:13;;;;;;;;;;;21.10;65.20;;;;;;5093577;28;19904;-68
2022/09/11 10:07:56;;;;;;;;;;;21.10;65.80;;;;;;5093514;28;19912;-68
2022/09/11 10:10:23;;;;;;;;;;;21.20;65.20;;;;;;5093361;28;20302;-68
2022/09/11 10:12:49;;;;;;;;;;;21.30;65.40;;;;;;5093463;28;19900;-68
2022/09/11 10:15:21;;;;;;;;;;;21.50;65.70;;;;;;5093255;28;19904;-68
2022/09/11 10:17:46;;;;;;;;;;;21.60;66.00;;;;;;5093217;28;20377;-67
2022/09/11 10:20:18;;;;;;;;;;;21.70;66.00;;;;;;5093182;28;19908;-67
2022/09/11 10:22:46;;;;;;;;;;;21.90;66.20;;;;;;5091929;28;20252;-68
2022/09/11 10:25:16;;;;;;;;;;;22.10;66.50;;;;;;5093181;28;19908;-68
2022/09/11 10:27:58;;;;;;;;;;;22.20;66.50;;;;;;5093023;28;19908;-68
2022/09/11 10:30:34;;;;;;;;;;;22.40;65.20;;;;;;5093379;28;20014;-68
2022/09/11 10:33:01;;;;;;;;;;;22.50;64.40;;;;;;5091589;28;19919;-68
2022/09/11 10:35:28;;;;;;;;;;;22.60;64.40;;;;;;5092983;28;19904;-68
2022/09/11 10:38:11;;;;;;;;;;;22.60;64.90;;;;;;5093036;28;20366;-67
2022/09/11 10:40:38;;;;;;;;;;;22.70;64.20;;;;;;5093132;28;19911;-68
2022/09/11 10:43:07;;;;;;;;;;;22.80;64.20;;;;;;5093028;28;19904;-68
2022/09/11 10:45:32;;;;;;;;;;;22.80;63.70;;;;;;5093043;28;19957;-68
2022/09/11 10:48:12;;;;;;;;;;;22.90;63.50;;;;;;5092893;28;20351;-68
2022/09/11 10:50:38;;;;;;;;;;;22.80;63.40;;;;;;5103124;28;19907;-68
2022/09/11 10:53:30;;;;;;;;;;;22.90;63.00;;;;;;5116958;28;19953;-68
2022/09/11 10:55:59;;;;;;;;;;;23.00;63.20;;;;;;5106200;28;20377;-68
2022/09/11 10:58:30;;;;;;;;;;;23.10;63.30;;;;;;5103399;28;20264;-67
2022/09/11 11:00:57;;;;;;;;;;;23.20;63.10;;;;;;5117029;28;19904;-68
2022/09/11 11:03:23;;;;;;;;;;;23.30;62.90;;;;;;5109160;28;19914;-68
2022/09/11 11:05:49;;;;;;;;;;;23.40;62.20;;;;;;5109185;28;19999;-69
2022/09/11 11:08:17;;;;;;;;;;;23.60;62.10;;;;;;5112536;28;20426;-68
2022/09/11 11:11:02;;;;;;;;;;;23.70;61.70;;;;;;5117065;28;19911;-68
2022/09/11 11:13:40;;;;;;;;;;;23.70;61.10;;;;;;5117056;28;20355;-68
2022/09/11 11:16:24;;;;;;;;;;;23.80;61.60;;;;;;5116950;28;20289;-68
2022/09/11 11:19:08;;;;;;;;;;;23.80;61.20;;;;;;5116891;28;19978;-68
2022/09/11 11:21:50;;;;;;;;;;;23.90;61.00;;;;;;5111900;28;19907;-68
2022/09/11 11:24:36;;;;;;;;;;;24.00;60.60;;;;;;5106283;28;19995;-68
2022/09/11 11:27:12;;;;;;;;;;;24.00;60.40;;;;;;5116717;28;19908;-68
2022/09/11 11:29:49;;;;;;;;;;;24.00;60.10;;;;;;5096440;28;19994;-68
2022/09/11 11:32:25;;;;;;;;;;;24.00;59.50;;;;;;5101852;28;19912;-68
2022/09/11 11:35:00;;;;;;;;;;;23.90;59.10;;;;;;5121602;27;19915;-68
2022/09/11 11:37:41;;;;;;;;;;;23.80;59.20;;;;;;5124846;27;20414;-68
2022/09/11 11:40:16;;;;;;;;;;;23.70;58.90;;;;;;5136721;27;19913;-68
2022/09/11 11:42:45;;;;;;;;;;;23.60;59.20;;;;;;5136645;27;20251;-68
2022/09/11 11:45:26;;;;;;;;;;;23.60;59.20;;;;;;5132661;27;20001;-68
2022/09/11 11:47:53;;;;;;;;;;;23.50;59.40;;;;;;5127489;27;19956;-68
2022/09/11 11:50:28;;;;;;;;;;;23.50;59.30;;;;;;5119772;27;19907;-69
2022/09/11 11:53:11;;;;;;;;;;;23.60;59.50;;;;;;5116215;28;19999;-68
2022/09/11 11:55:55;;;;;;;;;;;23.60;60.10;;;;;;5106633;28;19907;-68
2022/09/11 11:58:33;;;;;;;;;;;23.80;60.20;;;;;;5134631;27;20006;-68
2022/09/11 12:01:00;;;;;;;;;;;24.00;60.00;;;;;;5130448;27;20333;-68
2022/09/11 12:03:31;;;;;;;;;;;24.20;59.60;;;;;;5115699;28;20011;-69
2022/09/11 12:05:57;;;;;;;;;;;24.30;59.20;;;;;;5116059;28;19949;-68
2022/09/11 12:08:22;;;;;;;;;;;24.40;58.80;;;;;;5115838;28;19954;-68
2022/09/11 12:11:08;;;;;;;;;;;24.30;62.90;;;;;;5124050;27;20267;-68
2022/09/11 12:13:35;;;;;;;;;;;24.10;63.40;;;;;;5135527;27;19956;-68
2022/09/11 12:16:03;;;;;;;;;;;23.80;63.80;;;;;;5136052;27;19947;-69
2022/09/11 12:18:30;;;;;;;;;;;23.50;64.30;;;;;;5136018;27;19952;-69
2022/09/11 12:21:14;;;;;;;;;;;23.20;65.00;;;;;;5108688;27;19926;-69
2022/09/11 12:23:49;;;;;;;;;;;23.00;65.70;;;;;;5128418;27;19929;-70
2022/09/11 12:26:15;;;;;;;;;;;22.70;65.90;;;;;;5116937;27;19908;-69
2022/09/11 12:28:41;;;;;;;;;;;22.30;67.70;;;;;;5115590;28;19914;-69
2022/09/11 12:31:11;;;;;;;;;;;22.00;73.60;;;;;;5118622;27;19911;-69
2022/09/11 12:33:39;;;;;;;;;;;21.70;77.50;;;;;;5115303;28;19916;-69
2022/09/11 12:36:06;;;;;;;;;;;21.40;79.70;;;;;;5124338;27;19995;-69
2022/09/11 12:38:38;;;;;;;;;;;21.30;81.20;;;;;;5135964;27;19904;-69
2022/09/11 12:41:09;;;;;;;;;;;21.10;82.40;;;;;;5117410;27;19908;-69
2022/09/11 12:43:35;;;;;;;;;;;21.00;83.40;;;;;;5136030;27;19903;-69
2022/09/11 12:46:07;;;;;;;;;;;21.00;84.20;;;;;;5135801;27;20022;-69
2022/09/11 12:48:33;;;;;;;;;;;20.90;85.00;;;;;;5115172;27;19922;-69
2022/09/11 12:50:59;;;;;;;;;;;20.90;85.70;;;;;;5109617;27;19908;-70
2022/09/11 12:53:28;;;;;;;;;;;20.90;86.50;;;;;;5135243;27;19907;-70
2022/09/11 12:55:55;;;;;;;;;;;20.90;87.30;;;;;;5135635;27;19911;-70
2022/09/11 12:58:24;;;;;;;;;;;20.90;88.00;;;;;;5134743;27;20006;-70
2022/09/11 13:00:59;;;;;;;;;;;20.90;88.40;;;;;;5135602;27;19990;-70
2022/09/11 13:03:26;;;;;;;;;;;21.00;88.90;;;;;;5135543;27;19910;-70
2022/09/11 13:05:58;;;;;;;;;;;21.10;89.30;;;;;;5117050;27;19993;-70
2022/09/11 13:08:26;;;;;;;;;;;21.10;89.70;;;;;;5116312;27;19955;-70
2022/09/11 13:10:52;;;;;;;;;;;21.20;89.90;;;;;;5115769;27;19915;-70
2022/09/11 13:13:36;;;;;;;;;;;21.20;90.00;;;;;;5120372;27;20286;-70
2022/09/11 13:16:17;;;;;;;;;;;21.20;90.00;;;;;;5100530;27;20835;-70
2022/09/11 13:18:43;;;;;;;;;;;21.30;90.20;;;;;;5130066;27;19908;-69
2022/09/11 13:21:09;;;;;;;;;;;21.40;90.40;;;;;;5121486;27;19912;-69
2022/09/11 13:23:35;;;;;;;;;;;21.50;90.70;;;;;;5104158;27;19914;-69
2022/09/11 13:26:03;;;;;;;;;;;21.60;91.00;;;;;;5134821;27;19904;-69
2022/09/11 13:28:30;;;;;;;;;;;21.80;91.40;;;;;;5134892;27;19908;-70
2022/09/11 13:31:01;;;;;;;;;;;22.00;91.50;;;;;;5116661;27;19952;-70
2022/09/11 13:33:28;;;;;;;;;;;22.10;91.50;;;;;;5114153;28;19998;-69
2022/09/11 13:35:58;;;;;;;;;;;22.30;91.40;;;;;;5114342;28;19984;-70
2022/09/11 13:38:34;;;;;;;;;;;22.40;91.40;;;;;;5114187;28;19904;-69
2022/09/11 13:41:02;;;;;;;;;;;22.50;91.40;;;;;;5114355;28;19907;-70
2022/09/11 13:43:34;;;;;;;;;;;22.60;91.50;;;;;;5114282;28;20459;-70
2022/09/11 13:46:09;;;;;;;;;;;22.80;91.80;;;;;;5114320;28;20008;-70
2022/09/11 13:48:35;;;;;;;;;;;22.90;91.80;;;;;;5114056;28;19912;-70
2022/09/11 13:51:03;;;;;;;;;;;23.10;92.00;;;;;;5113846;28;19908;-69
2022/09/11 13:53:30;;;;;;;;;;;23.20;92.10;;;;;;5113936;28;19908;-70
2022/09/11 13:55:55;;;;;;;;;;;23.30;92.10;;;;;;5114045;28;19903;-70
2022/09/11 13:58:29;;;;;;;;;;;23.40;91.60;;;;;;5095778;28;20350;-70
2022/09/11 14:00:55;;;;;;;;;;;23.40;91.30;;;;;;5114046;28;19929;-70
2022/09/11 14:03:23;;;;;;;;;;;23.50;91.80;;;;;;5113933;28;20006;-69
2022/09/11 14:05:56;;;;;;;;;;;23.70;91.80;;;;;;5113830;28;19977;-70
2022/09/11 14:08:22;;;;;;;;;;;23.80;92.00;;;;;;5095485;28;20323;-69
2022/09/11 14:10:48;;;;;;;;;;;24.00;92.10;;;;;;5113748;28;19990;-69
2022/09/11 14:13:19;;;;;;;;;;;24.10;92.00;;;;;;5113756;28;19903;-69
2022/09/11 14:15:50;;;;;;;;;;;24.10;91.40;;;;;;5113772;28;19904;-69
2022/09/11 14:18:36;;;;;;;;;;;24.20;91.40;;;;;;5113652;28;20364;-69
2022/09/11 14:21:05;;;;;;;;;;;24.30;91.50;;;;;;5077536;28;19908;-69
2022/09/11 14:23:31;;;;;;;;;;;24.40;91.50;;;;;;5113557;28;19998;-70
2022/09/11 14:26:02;;;;;;;;;;;24.50;91.60;;;;;;5113251;28;19946;-69
2022/09/11 14:28:35;;;;;;;;;;;24.60;92.10;;;;;;5113447;28;19907;-69